sensor_id;sensor_type;location;lat;lon;timestamp;P1;durP1;ratioP1;P2;durP2;ratioP2
71941;SDS011;59997;53.300;-6.260;2022-08-19T00:01:22;11.05;;;1.73;;
71941;SDS011;59997;53.300;-6.260;2022-08-19T00:03:50;9.63;;;1.30;;
71941;SDS011;59997;53.300;-6.260;2022-08-19T00:06:16;7.57;;;1.25;;
71941;SDS011;59997;53.300;-6.260;2022-08-19T00:08:42;11.27;;;1.33;;
71941;SDS011;59997;53.300;-6.260;2022-08-19T00:11:08;11.57;;;1.45;;
71941;SDS011;59997;53.300;-6.260;2022-08-19T00:13:35;10.60;;;1.10;;
71941;SDS011;59997;53.300;-6.260;2022-08-19T00:16:01;14.40;;;1.67;;
71941;SDS011;59997;53.300;-6.260;2022-08-19T00:18:28;11.50;;;1.10;;
71941;SDS011;59997;53.300;-6.260;2022-08-19T00:20:54;9.48;;;1.27;;
71941;SDS011;59997;53.300;-6.260;2022-08-19T00:23:21;10.70;;;1.30;;
71941;SDS011;59997;53.300;-6.260;2022-08-19T00:25:46;16.42;;;1.85;;
71941;SDS011;59997;53.300;-6.260;2022-08-19T00:28:12;12.23;;;1.60;;
71941;SDS011;59997;53.300;-6.260;2022-08-19T00:30:38;12.47;;;1.73;;
71941;SDS011;59997;53.300;-6.260;2022-08-19T00:33:06;15.90;;;1.58;;
71941;SDS011;59997;53.300;-6.260;2022-08-19T00:35:34;10.77;;;1.33;;
71941;SDS011;59997;53.300;-6.260;2022-08-19T00:37:59;10.73;;;1.17;;
71941;SDS011;59997;53.300;-6.260;2022-08-19T00:40:26;14.05;;;1.60;;
71941;SDS011;59997;53.300;-6.260;2022-08-19T00:42:51;15.65;;;2.30;;
71941;SDS011;59997;53.300;-6.260;2022-08-19T00:45:20;16.90;;;1.60;;
71941;SDS011;59997;53.300;-6.260;2022-08-19T00:47:48;14.52;;;1.42;;
71941;SDS011;59997;53.300;-6.260;2022-08-19T00:50:15;11.02;;;1.73;;
71941;SDS011;59997;53.300;-6.260;2022-08-19T00:52:45;14.88;;;1.80;;
71941;SDS011;59997;53.300;-6.260;2022-08-19T00:55:16;13.20;;;1.90;;
71941;SDS011;59997;53.300;-6.260;2022-08-19T00:57:50;12.20;;;1.60;;
71941;SDS011;59997;53.300;-6.260;2022-08-19T01:00:20;14.02;;;1.60;;
71941;SDS011;59997;53.300;-6.260;2022-08-19T01:02:49;16.15;;;1.70;;
71941;SDS011;59997;53.300;-6.260;2022-08-19T01:05:19;10.27;;;2.53;;
71941;SDS011;59997;53.300;-6.260;2022-08-19T01:07:53;18.75;;;1.40;;
71941;SDS011;59997;53.300;-6.260;2022-08-19T01:10:24;13.00;;;2.63;;
71941;SDS011;59997;53.300;-6.260;2022-08-19T01:12:53;14.73;;;1.83;;
71941;SDS011;59997;53.300;-6.260;2022-08-19T01:15:24;18.13;;;2.08;;
71941;SDS011;59997;53.300;-6.260;2022-08-19T01:17:55;20.47;;;1.37;;
71941;SDS011;59997;53.300;-6.260;2022-08-19T01:20:22;15.95;;;2.08;;
71941;SDS011;59997;53.300;-6.260;2022-08-19T01:22:50;15.90;;;2.15;;
71941;SDS011;59997;53.300;-6.260;2022-08-19T01:25:19;15.50;;;2.00;;
71941;SDS011;59997;53.300;-6.260;2022-08-19T01:27:49;21.15;;;2.20;;
71941;SDS011;59997;53.300;-6.260;2022-08-19T01:30:18;14.83;;;2.17;;
71941;SDS011;59997;53.300;-6.260;2022-08-19T01:32:55;16.27;;;1.92;;
71941;SDS011;59997;53.300;-6.260;2022-08-19T01:35:22;13.38;;;1.50;;
71941;SDS011;59997;53.300;-6.260;2022-08-19T01:37:51;16.83;;;2.05;;
71941;SDS011;59997;53.300;-6.260;2022-08-19T01:40:21;15.60;;;2.00;;
71941;SDS011;59997;53.300;-6.260;2022-08-19T01:42:49;20.90;;;2.13;;
71941;SDS011;59997;53.300;-6.260;2022-08-19T01:45:16;15.60;;;1.83;;
71941;SDS011;59997;53.300;-6.260;2022-08-19T01:47:43;16.75;;;1.75;;
71941;SDS011;59997;53.300;-6.260;2022-08-19T01:50:10;16.00;;;2.30;;
71941;SDS011;59997;53.300;-6.260;2022-08-19T01:52:37;13.25;;;1.90;;
71941;SDS011;59997;53.300;-6.260;2022-08-19T01:55:06;12.60;;;1.77;;
71941;SDS011;59997;53.300;-6.260;2022-08-19T01:57:34;14.10;;;1.85;;
71941;SDS011;59997;53.300;-6.260;2022-08-19T01:59:59;12.17;;;1.60;;
71941;SDS011;59997;53.300;-6.260;2022-08-19T02:02:27;12.38;;;1.92;;
71941;SDS011;59997;53.300;-6.260;2022-08-19T02:04:53;16.08;;;1.77;;
71941;SDS011;59997;53.300;-6.260;2022-08-19T02:07:20;13.20;;;1.60;;
71941;SDS011;59997;53.300;-6.260;2022-08-19T02:09:48;14.23;;;1.83;;
71941;SDS011;59997;53.300;-6.260;2022-08-19T02:12:14;12.00;;;1.48;;
71941;SDS011;59997;53.300;-6.260;2022-08-19T02:14:41;12.23;;;1.40;;
71941;SDS011;59997;53.300;-6.260;2022-08-19T02:17:08;19.33;;;2.35;;
71941;SDS011;59997;53.300;-6.260;2022-08-19T02:19:33;12.03;;;1.50;;
71941;SDS011;59997;53.300;-6.260;2022-08-19T02:22:00;21.75;;;2.25;;
71941;SDS011;59997;53.300;-6.260;2022-08-19T02:24:26;20.10;;;1.90;;
71941;SDS011;59997;53.300;-6.260;2022-08-19T02:26:53;15.07;;;2.17;;
71941;SDS011;59997;53.300;-6.260;2022-08-19T02:29:19;15.47;;;1.83;;
71941;SDS011;59997;53.300;-6.260;2022-08-19T02:31:45;14.52;;;1.67;;
71941;SDS011;59997;53.300;-6.260;2022-08-19T02:34:10;14.52;;;1.83;;
71941;SDS011;59997;53.300;-6.260;2022-08-19T02:36:36;16.10;;;2.27;;
71941;SDS011;59997;53.300;-6.260;2022-08-19T02:39:02;14.73;;;1.73;;
71941;SDS011;59997;53.300;-6.260;2022-08-19T02:41:31;11.57;;;1.17;;
71941;SDS011;59997;53.300;-6.260;2022-08-19T02:43:58;14.83;;;1.73;;
71941;SDS011;59997;53.300;-6.260;2022-08-19T02:46:27;13.90;;;2.30;;
71941;SDS011;59997;53.300;-6.260;2022-08-19T02:48:55;11.88;;;1.17;;
71941;SDS011;59997;53.300;-6.260;2022-08-19T02:51:24;20.45;;;1.98;;
71941;SDS011;59997;53.300;-6.260;2022-08-19T02:53:52;15.10;;;2.10;;
71941;SDS011;59997;53.300;-6.260;2022-08-19T02:56:20;15.13;;;2.17;;
71941;SDS011;59997;53.300;-6.260;2022-08-19T02:58:45;16.55;;;1.17;;
71941;SDS011;59997;53.300;-6.260;2022-08-19T03:01:19;15.35;;;1.75;;
71941;SDS011;59997;53.300;-6.260;2022-08-19T03:03:55;17.27;;;1.63;;
71941;SDS011;59997;53.300;-6.260;2022-08-19T03:06:23;16.33;;;1.63;;
71941;SDS011;59997;53.300;-6.260;2022-08-19T03:08:48;18.17;;;2.13;;
71941;SDS011;59997;53.300;-6.260;2022-08-19T03:11:20;15.73;;;1.70;;
71941;SDS011;59997;53.300;-6.260;2022-08-19T03:13:45;9.32;;;1.33;;
71941;SDS011;59997;53.300;-6.260;2022-08-19T03:16:14;9.77;;;1.73;;
71941;SDS011;59997;53.300;-6.260;2022-08-19T03:18:40;10.30;;;0.83;;
71941;SDS011;59997;53.300;-6.260;2022-08-19T03:21:06;10.25;;;1.40;;
71941;SDS011;59997;53.300;-6.260;2022-08-19T03:23:33;13.10;;;1.10;;
71941;SDS011;59997;53.300;-6.260;2022-08-19T03:26:03;14.17;;;1.63;;
71941;SDS011;59997;53.300;-6.260;2022-08-19T03:28:31;10.80;;;1.23;;
71941;SDS011;59997;53.300;-6.260;2022-08-19T03:30:58;11.40;;;1.27;;
71941;SDS011;59997;53.300;-6.260;2022-08-19T03:33:28;14.05;;;1.25;;
71941;SDS011;59997;53.300;-6.260;2022-08-19T03:36:02;11.32;;;1.10;;
71941;SDS011;59997;53.300;-6.260;2022-08-19T03:38:36;8.33;;;0.97;;
71941;SDS011;59997;53.300;-6.260;2022-08-19T03:41:04;10.25;;;1.50;;
71941;SDS011;59997;53.300;-6.260;2022-08-19T03:43:34;12.13;;;1.65;;
71941;SDS011;59997;53.300;-6.260;2022-08-19T03:46:03;10.18;;;1.35;;
71941;SDS011;59997;53.300;-6.260;2022-08-19T03:48:31;11.52;;;1.38;;
71941;SDS011;59997;53.300;-6.260;2022-08-19T03:50:58;14.10;;;1.23;;
71941;SDS011;59997;53.300;-6.260;2022-08-19T03:53:24;10.00;;;1.67;;
71941;SDS011;59997;53.300;-6.260;2022-08-19T03:55:51;9.13;;;1.48;;
71941;SDS011;59997;53.300;-6.260;2022-08-19T03:58:18;12.20;;;1.05;;
71941;SDS011;59997;53.300;-6.260;2022-08-19T04:00:44;13.35;;;1.23;;
71941;SDS011;59997;53.300;-6.260;2022-08-19T04:03:10;9.77;;;1.20;;
71941;SDS011;59997;53.300;-6.260;2022-08-19T04:05:36;10.98;;;0.90;;
71941;SDS011;59997;53.300;-6.260;2022-08-19T04:08:03;7.20;;;1.00;;
71941;SDS011;59997;53.300;-6.260;2022-08-19T04:10:30;10.97;;;0.90;;
71941;SDS011;59997;53.300;-6.260;2022-08-19T04:13:00;10.70;;;1.55;;
71941;SDS011;59997;53.300;-6.260;2022-08-19T04:15:26;13.13;;;1.80;;
71941;SDS011;59997;53.300;-6.260;2022-08-19T04:17:54;13.88;;;1.52;;
71941;SDS011;59997;53.300;-6.260;2022-08-19T04:20:20;12.10;;;1.13;;
71941;SDS011;59997;53.300;-6.260;2022-08-19T04:22:46;10.10;;;1.42;;
71941;SDS011;59997;53.300;-6.260;2022-08-19T04:25:11;15.07;;;1.87;;
71941;SDS011;59997;53.300;-6.260;2022-08-19T04:27:37;8.77;;;0.90;;
71941;SDS011;59997;53.300;-6.260;2022-08-19T04:30:03;13.57;;;1.33;;
71941;SDS011;59997;53.300;-6.260;2022-08-19T04:32:29;8.82;;;1.17;;
71941;SDS011;59997;53.300;-6.260;2022-08-19T04:34:57;9.43;;;0.90;;
71941;SDS011;59997;53.300;-6.260;2022-08-19T04:37:25;12.27;;;1.25;;
71941;SDS011;59997;53.300;-6.260;2022-08-19T04:39:51;8.35;;;0.90;;
71941;SDS011;59997;53.300;-6.260;2022-08-19T04:42:35;13.83;;;1.80;;
71941;SDS011;59997;53.300;-6.260;2022-08-19T04:45:08;9.68;;;1.17;;
71941;SDS011;59997;53.300;-6.260;2022-08-19T04:47:37;12.38;;;1.30;;
71941;SDS011;59997;53.300;-6.260;2022-08-19T04:50:04;13.98;;;1.33;;
71941;SDS011;59997;53.300;-6.260;2022-08-19T04:52:31;10.20;;;0.98;;
71941;SDS011;59997;53.300;-6.260;2022-08-19T04:54:57;9.73;;;0.97;;
71941;SDS011;59997;53.300;-6.260;2022-08-19T04:57:23;14.77;;;1.48;;
71941;SDS011;59997;53.300;-6.260;2022-08-19T04:59:53;12.80;;;1.33;;
71941;SDS011;59997;53.300;-6.260;2022-08-19T05:02:23;12.60;;;0.95;;
71941;SDS011;59997;53.300;-6.260;2022-08-19T05:04:51;8.80;;;0.90;;
71941;SDS011;59997;53.300;-6.260;2022-08-19T05:07:22;10.02;;;1.02;;
71941;SDS011;59997;53.300;-6.260;2022-08-19T05:09:49;9.70;;;1.35;;
71941;SDS011;59997;53.300;-6.260;2022-08-19T05:12:15;10.67;;;1.10;;
71941;SDS011;59997;53.300;-6.260;2022-08-19T05:14:42;10.40;;;1.40;;
71941;SDS011;59997;53.300;-6.260;2022-08-19T05:17:10;11.43;;;1.73;;
71941;SDS011;59997;53.300;-6.260;2022-08-19T05:19:36;6.80;;;0.70;;
71941;SDS011;59997;53.300;-6.260;2022-08-19T05:22:25;11.25;;;1.33;;
71941;SDS011;59997;53.300;-6.260;2022-08-19T05:25:10;7.05;;;1.00;;
71941;SDS011;59997;53.300;-6.260;2022-08-19T05:27:38;8.25;;;1.10;;
71941;SDS011;59997;53.300;-6.260;2022-08-19T05:30:05;8.95;;;1.05;;
71941;SDS011;59997;53.300;-6.260;2022-08-19T05:32:34;10.80;;;1.17;;
71941;SDS011;59997;53.300;-6.260;2022-08-19T05:35:00;9.23;;;1.20;;
71941;SDS011;59997;53.300;-6.260;2022-08-19T05:37:28;7.80;;;0.90;;
71941;SDS011;59997;53.300;-6.260;2022-08-19T05:39:54;9.47;;;0.80;;
71941;SDS011;59997;53.300;-6.260;2022-08-19T05:42:21;8.82;;;0.93;;
71941;SDS011;59997;53.300;-6.260;2022-08-19T05:44:48;7.00;;;0.75;;
71941;SDS011;59997;53.300;-6.260;2022-08-19T05:47:15;7.50;;;0.87;;
71941;SDS011;59997;53.300;-6.260;2022-08-19T05:49:44;9.40;;;0.70;;
71941;SDS011;59997;53.300;-6.260;2022-08-19T05:52:11;16.53;;;1.87;;
71941;SDS011;59997;53.300;-6.260;2022-08-19T05:54:39;5.53;;;0.80;;
71941;SDS011;59997;53.300;-6.260;2022-08-19T05:57:06;9.38;;;1.20;;
71941;SDS011;59997;53.300;-6.260;2022-08-19T05:59:33;11.45;;;1.20;;
71941;SDS011;59997;53.300;-6.260;2022-08-19T06:02:01;6.43;;;0.63;;
71941;SDS011;59997;53.300;-6.260;2022-08-19T06:04:27;9.43;;;0.80;;
71941;SDS011;59997;53.300;-6.260;2022-08-19T06:06:54;6.17;;;0.60;;
71941;SDS011;59997;53.300;-6.260;2022-08-19T06:09:21;5.85;;;0.85;;
71941;SDS011;59997;53.300;-6.260;2022-08-19T06:11:52;7.65;;;1.10;;
71941;SDS011;59997;53.300;-6.260;2022-08-19T06:14:23;7.05;;;0.60;;
71941;SDS011;59997;53.300;-6.260;2022-08-19T06:16:51;3.97;;;0.50;;
71941;SDS011;59997;53.300;-6.260;2022-08-19T06:19:22;5.80;;;0.90;;
71941;SDS011;59997;53.300;-6.260;2022-08-19T06:21:51;8.07;;;0.70;;
71941;SDS011;59997;53.300;-6.260;2022-08-19T06:24:18;6.82;;;0.60;;
71941;SDS011;59997;53.300;-6.260;2022-08-19T06:26:48;5.72;;;0.63;;
71941;SDS011;59997;53.300;-6.260;2022-08-19T06:29:15;8.70;;;1.03;;
71941;SDS011;59997;53.300;-6.260;2022-08-19T06:31:45;9.95;;;0.98;;
71941;SDS011;59997;53.300;-6.260;2022-08-19T06:34:15;6.40;;;0.68;;
71941;SDS011;59997;53.300;-6.260;2022-08-19T06:36:43;8.00;;;0.75;;
71941;SDS011;59997;53.300;-6.260;2022-08-19T06:39:12;7.83;;;0.83;;
71941;SDS011;59997;53.300;-6.260;2022-08-19T06:41:42;6.43;;;0.65;;
71941;SDS011;59997;53.300;-6.260;2022-08-19T06:44:10;7.57;;;1.00;;
71941;SDS011;59997;53.300;-6.260;2022-08-19T06:46:37;9.55;;;0.93;;
71941;SDS011;59997;53.300;-6.260;2022-08-19T06:49:05;6.45;;;0.85;;
71941;SDS011;59997;53.300;-6.260;2022-08-19T06:51:33;7.43;;;0.70;;
71941;SDS011;59997;53.300;-6.260;2022-08-19T06:53:59;7.45;;;1.00;;
71941;SDS011;59997;53.300;-6.260;2022-08-19T06:56:26;7.23;;;0.80;;
71941;SDS011;59997;53.300;-6.260;2022-08-19T06:59:04;8.68;;;0.88;;
71941;SDS011;59997;53.300;-6.260;2022-08-19T07:01:40;7.43;;;1.10;;
71941;SDS011;59997;53.300;-6.260;2022-08-19T07:04:10;8.35;;;1.10;;
71941;SDS011;59997;53.300;-6.260;2022-08-19T07:06:37;5.40;;;0.40;;
71941;SDS011;59997;53.300;-6.260;2022-08-19T07:09:04;9.52;;;0.90;;
71941;SDS011;59997;53.300;-6.260;2022-08-19T07:11:31;6.35;;;0.57;;
71941;SDS011;59997;53.300;-6.260;2022-08-19T07:13:59;6.28;;;0.88;;
71941;SDS011;59997;53.300;-6.260;2022-08-19T07:16:26;7.57;;;0.80;;
71941;SDS011;59997;53.300;-6.260;2022-08-19T07:18:53;5.65;;;0.82;;
71941;SDS011;59997;53.300;-6.260;2022-08-19T07:21:21;6.35;;;0.40;;
71941;SDS011;59997;53.300;-6.260;2022-08-19T07:23:49;6.18;;;0.65;;
71941;SDS011;59997;53.300;-6.260;2022-08-19T07:26:25;5.63;;;0.70;;
71941;SDS011;59997;53.300;-6.260;2022-08-19T07:28:56;8.07;;;0.70;;
71941;SDS011;59997;53.300;-6.260;2022-08-19T07:31:24;6.93;;;0.68;;
71941;SDS011;59997;53.300;-6.260;2022-08-19T07:33:52;6.93;;;0.60;;
71941;SDS011;59997;53.300;-6.260;2022-08-19T07:36:24;5.85;;;1.25;;
71941;SDS011;59997;53.300;-6.260;2022-08-19T07:38:58;6.40;;;0.75;;
71941;SDS011;59997;53.300;-6.260;2022-08-19T07:41:26;5.73;;;0.80;;
71941;SDS011;59997;53.300;-6.260;2022-08-19T07:43:56;6.18;;;1.00;;
71941;SDS011;59997;53.300;-6.260;2022-08-19T07:46:36;6.45;;;1.13;;
71941;SDS011;59997;53.300;-6.260;2022-08-19T07:49:04;3.83;;;0.40;;
71941;SDS011;59997;53.300;-6.260;2022-08-19T07:51:31;7.43;;;0.70;;
71941;SDS011;59997;53.300;-6.260;2022-08-19T07:53:57;6.17;;;0.60;;
71941;SDS011;59997;53.300;-6.260;2022-08-19T07:56:23;8.88;;;0.75;;
71941;SDS011;59997;53.300;-6.260;2022-08-19T07:58:50;6.63;;;0.70;;
71941;SDS011;59997;53.300;-6.260;2022-08-19T08:01:18;6.55;;;1.00;;
71941;SDS011;59997;53.300;-6.260;2022-08-19T08:03:47;7.43;;;0.93;;
71941;SDS011;59997;53.300;-6.260;2022-08-19T08:06:32;6.20;;;0.70;;
71941;SDS011;59997;53.300;-6.260;2022-08-19T08:09:20;9.13;;;0.63;;
71941;SDS011;59997;53.300;-6.260;2022-08-19T08:11:51;8.35;;;1.00;;
71941;SDS011;59997;53.300;-6.260;2022-08-19T08:14:27;4.72;;;0.90;;
71941;SDS011;59997;53.300;-6.260;2022-08-19T08:16:56;7.93;;;1.00;;
71941;SDS011;59997;53.300;-6.260;2022-08-19T08:19:22;7.50;;;1.40;;
71941;SDS011;59997;53.300;-6.260;2022-08-19T08:21:50;8.07;;;1.27;;
71941;SDS011;59997;53.300;-6.260;2022-08-19T08:24:16;6.85;;;1.00;;
71941;SDS011;59997;53.300;-6.260;2022-08-19T08:26:43;7.88;;;1.05;;
71941;SDS011;59997;53.300;-6.260;2022-08-19T08:29:10;10.68;;;1.77;;
71941;SDS011;59997;53.300;-6.260;2022-08-19T08:31:36;7.30;;;1.20;;
71941;SDS011;59997;53.300;-6.260;2022-08-19T08:34:03;6.93;;;1.10;;
71941;SDS011;59997;53.300;-6.260;2022-08-19T08:36:28;6.30;;;0.95;;
71941;SDS011;59997;53.300;-6.260;2022-08-19T08:38:54;8.97;;;1.27;;
71941;SDS011;59997;53.300;-6.260;2022-08-19T08:44:22;6.43;;;1.20;;
71941;SDS011;59997;53.300;-6.260;2022-08-19T08:47:00;8.82;;;1.15;;
71941;SDS011;59997;53.300;-6.260;2022-08-19T08:49:33;8.23;;;1.20;;
71941;SDS011;59997;53.300;-6.260;2022-08-19T08:52:29;9.15;;;1.10;;
71941;SDS011;59997;53.300;-6.260;2022-08-19T08:55:10;6.90;;;1.40;;
71941;SDS011;59997;53.300;-6.260;2022-08-19T08:57:43;6.05;;;0.80;;
71941;SDS011;59997;53.300;-6.260;2022-08-19T09:00:31;7.32;;;1.38;;
71941;SDS011;59997;53.300;-6.260;2022-08-19T09:03:00;8.10;;;1.10;;
71941;SDS011;59997;53.300;-6.260;2022-08-19T09:05:36;6.22;;;1.23;;
71941;SDS011;59997;53.300;-6.260;2022-08-19T09:08:06;7.20;;;1.40;;
71941;SDS011;59997;53.300;-6.260;2022-08-19T09:10:40;5.68;;;1.45;;
71941;SDS011;59997;53.300;-6.260;2022-08-19T09:16:07;7.23;;;1.43;;
71941;SDS011;59997;53.300;-6.260;2022-08-19T09:18:49;6.50;;;1.52;;
71941;SDS011;59997;53.300;-6.260;2022-08-19T09:21:26;4.53;;;1.35;;
71941;SDS011;59997;53.300;-6.260;2022-08-19T09:23:53;5.78;;;1.42;;
71941;SDS011;59997;53.300;-6.260;2022-08-19T09:26:20;5.30;;;1.80;;
71941;SDS011;59997;53.300;-6.260;2022-08-19T09:28:49;6.63;;;1.53;;
71941;SDS011;59997;53.300;-6.260;2022-08-19T09:31:18;6.97;;;1.50;;
71941;SDS011;59997;53.300;-6.260;2022-08-19T09:33:45;5.30;;;1.45;;
71941;SDS011;59997;53.300;-6.260;2022-08-19T09:36:13;7.10;;;1.77;;
71941;SDS011;59997;53.300;-6.260;2022-08-19T09:38:40;7.45;;;1.90;;
71941;SDS011;59997;53.300;-6.260;2022-08-19T09:41:09;6.37;;;1.30;;
71941;SDS011;59997;53.300;-6.260;2022-08-19T09:43:37;6.40;;;1.42;;
71941;SDS011;59997;53.300;-6.260;2022-08-19T09:46:03;7.38;;;1.98;;
71941;SDS011;59997;53.300;-6.260;2022-08-19T09:48:33;6.57;;;1.50;;
71941;SDS011;59997;53.300;-6.260;2022-08-19T09:51:09;6.60;;;1.40;;
71941;SDS011;59997;53.300;-6.260;2022-08-19T09:53:37;7.07;;;1.73;;
71941;SDS011;59997;53.300;-6.260;2022-08-19T09:56:05;5.77;;;1.20;;
71941;SDS011;59997;53.300;-6.260;2022-08-19T09:58:35;7.82;;;1.10;;
71941;SDS011;59997;53.300;-6.260;2022-08-19T10:01:02;6.20;;;0.90;;
71941;SDS011;59997;53.300;-6.260;2022-08-19T10:03:31;6.85;;;1.00;;
71941;SDS011;59997;53.300;-6.260;2022-08-19T10:05:58;4.85;;;0.70;;
71941;SDS011;59997;53.300;-6.260;2022-08-19T10:08:30;7.63;;;1.50;;
71941;SDS011;59997;53.300;-6.260;2022-08-19T10:10:58;6.93;;;0.98;;
71941;SDS011;59997;53.300;-6.260;2022-08-19T10:13:25;6.10;;;0.85;;
71941;SDS011;59997;53.300;-6.260;2022-08-19T10:15:55;6.43;;;0.90;;
71941;SDS011;59997;53.300;-6.260;2022-08-19T10:18:23;7.35;;;0.80;;
71941;SDS011;59997;53.300;-6.260;2022-08-19T10:20:50;5.57;;;0.70;;
71941;SDS011;59997;53.300;-6.260;2022-08-19T10:23:19;8.23;;;0.60;;
71941;SDS011;59997;53.300;-6.260;2022-08-19T10:25:46;6.93;;;1.25;;
71941;SDS011;59997;53.300;-6.260;2022-08-19T10:28:13;9.02;;;0.73;;
71941;SDS011;59997;53.300;-6.260;2022-08-19T10:30:39;5.68;;;1.10;;
71941;SDS011;59997;53.300;-6.260;2022-08-19T10:33:06;5.63;;;0.83;;
71941;SDS011;59997;53.300;-6.260;2022-08-19T10:35:32;5.13;;;0.60;;
71941;SDS011;59997;53.300;-6.260;2022-08-19T10:37:59;5.43;;;0.70;;
71941;SDS011;59997;53.300;-6.260;2022-08-19T10:40:27;7.47;;;0.90;;
71941;SDS011;59997;53.300;-6.260;2022-08-19T10:42:53;8.52;;;0.98;;
71941;SDS011;59997;53.300;-6.260;2022-08-19T10:45:21;5.47;;;0.97;;
71941;SDS011;59997;53.300;-6.260;2022-08-19T10:47:50;7.05;;;1.02;;
71941;SDS011;59997;53.300;-6.260;2022-08-19T10:50:15;7.47;;;1.00;;
71941;SDS011;59997;53.300;-6.260;2022-08-19T10:53:03;7.13;;;0.80;;
71941;SDS011;59997;53.300;-6.260;2022-08-19T10:55:31;9.77;;;0.88;;
71941;SDS011;59997;53.300;-6.260;2022-08-19T10:58:17;7.03;;;0.90;;
71941;SDS011;59997;53.300;-6.260;2022-08-19T11:00:56;4.90;;;0.95;;
71941;SDS011;59997;53.300;-6.260;2022-08-19T11:03:24;10.43;;;1.10;;
71941;SDS011;59997;53.300;-6.260;2022-08-19T11:06:02;7.10;;;0.70;;
71941;SDS011;59997;53.300;-6.260;2022-08-19T11:08:30;6.38;;;0.90;;
71941;SDS011;59997;53.300;-6.260;2022-08-19T11:10:58;5.13;;;0.60;;
71941;SDS011;59997;53.300;-6.260;2022-08-19T11:13:27;7.10;;;0.75;;
71941;SDS011;59997;53.300;-6.260;2022-08-19T11:16:14;4.97;;;0.87;;
71941;SDS011;59997;53.300;-6.260;2022-08-19T11:18:44;4.65;;;1.40;;
71941;SDS011;59997;53.300;-6.260;2022-08-19T11:21:15;8.48;;;1.80;;
71941;SDS011;59997;53.300;-6.260;2022-08-19T11:23:44;9.10;;;1.73;;
71941;SDS011;59997;53.300;-6.260;2022-08-19T11:26:12;9.27;;;2.38;;
71941;SDS011;59997;53.300;-6.260;2022-08-19T11:28:39;6.50;;;1.63;;
71941;SDS011;59997;53.300;-6.260;2022-08-19T11:31:15;7.53;;;1.85;;
71941;SDS011;59997;53.300;-6.260;2022-08-19T11:33:43;6.75;;;1.70;;
71941;SDS011;59997;53.300;-6.260;2022-08-19T11:36:09;7.32;;;1.30;;
71941;SDS011;59997;53.300;-6.260;2022-08-19T11:38:35;6.07;;;1.60;;
71941;SDS011;59997;53.300;-6.260;2022-08-19T11:41:02;8.20;;;1.87;;
71941;SDS011;59997;53.300;-6.260;2022-08-19T11:43:30;9.90;;;2.03;;
71941;SDS011;59997;53.300;-6.260;2022-08-19T11:45:57;8.57;;;1.95;;
71941;SDS011;59997;53.300;-6.260;2022-08-19T11:48:23;7.80;;;2.00;;
71941;SDS011;59997;53.300;-6.260;2022-08-19T11:50:50;5.63;;;1.83;;
71941;SDS011;59997;53.300;-6.260;2022-08-19T11:53:18;7.17;;;1.93;;
71941;SDS011;59997;53.300;-6.260;2022-08-19T11:55:49;8.07;;;2.00;;
71941;SDS011;59997;53.300;-6.260;2022-08-19T11:58:15;6.45;;;1.73;;
71941;SDS011;59997;53.300;-6.260;2022-08-19T12:00:42;10.43;;;1.80;;
71941;SDS011;59997;53.300;-6.260;2022-08-19T12:03:12;6.80;;;1.13;;
71941;SDS011;59997;53.300;-6.260;2022-08-19T12:05:38;8.03;;;1.53;;
71941;SDS011;59997;53.300;-6.260;2022-08-19T12:08:04;6.57;;;1.33;;
71941;SDS011;59997;53.300;-6.260;2022-08-19T12:10:31;9.13;;;1.90;;
71941;SDS011;59997;53.300;-6.260;2022-08-19T12:12:56;8.55;;;2.20;;
71941;SDS011;59997;53.300;-6.260;2022-08-19T12:15:25;7.60;;;1.80;;
71941;SDS011;59997;53.300;-6.260;2022-08-19T12:17:53;6.80;;;2.15;;
71941;SDS011;59997;53.300;-6.260;2022-08-19T12:20:22;8.98;;;2.50;;
71941;SDS011;59997;53.300;-6.260;2022-08-19T12:22:50;8.07;;;2.33;;
71941;SDS011;59997;53.300;-6.260;2022-08-19T12:25:17;9.93;;;2.90;;
71941;SDS011;59997;53.300;-6.260;2022-08-19T12:27:43;7.23;;;1.60;;
71941;SDS011;59997;53.300;-6.260;2022-08-19T12:30:09;8.02;;;2.00;;
71941;SDS011;59997;53.300;-6.260;2022-08-19T12:32:37;8.38;;;1.45;;
71941;SDS011;59997;53.300;-6.260;2022-08-19T12:35:04;8.70;;;1.40;;
71941;SDS011;59997;53.300;-6.260;2022-08-19T12:37:31;7.28;;;1.33;;
71941;SDS011;59997;53.300;-6.260;2022-08-19T12:39:58;7.57;;;1.00;;
71941;SDS011;59997;53.300;-6.260;2022-08-19T12:42:24;7.80;;;1.30;;
71941;SDS011;59997;53.300;-6.260;2022-08-19T12:44:49;7.30;;;1.60;;
71941;SDS011;59997;53.300;-6.260;2022-08-19T12:47:18;6.53;;;1.00;;
71941;SDS011;59997;53.300;-6.260;2022-08-19T12:49:44;7.50;;;1.60;;
71941;SDS011;59997;53.300;-6.260;2022-08-19T12:52:13;9.68;;;1.92;;
71941;SDS011;59997;53.300;-6.260;2022-08-19T12:54:42;8.40;;;1.70;;
71941;SDS011;59997;53.300;-6.260;2022-08-19T12:57:12;8.02;;;1.70;;
71941;SDS011;59997;53.300;-6.260;2022-08-19T12:59:37;8.47;;;1.73;;
71941;SDS011;59997;53.300;-6.260;2022-08-19T13:02:04;6.95;;;1.50;;
71941;SDS011;59997;53.300;-6.260;2022-08-19T13:04:32;7.78;;;1.63;;
71941;SDS011;59997;53.300;-6.260;2022-08-19T13:07:02;6.32;;;1.40;;
71941;SDS011;59997;53.300;-6.260;2022-08-19T13:09:28;7.57;;;1.42;;
71941;SDS011;59997;53.300;-6.260;2022-08-19T13:11:53;7.27;;;1.30;;
71941;SDS011;59997;53.300;-6.260;2022-08-19T13:14:19;7.90;;;1.30;;
71941;SDS011;59997;53.300;-6.260;2022-08-19T13:16:45;7.43;;;1.38;;
71941;SDS011;59997;53.300;-6.260;2022-08-19T13:19:12;8.07;;;1.33;;
71941;SDS011;59997;53.300;-6.260;2022-08-19T13:21:38;8.05;;;1.65;;
71941;SDS011;59997;53.300;-6.260;2022-08-19T13:24:05;10.73;;;1.90;;
71941;SDS011;59997;53.300;-6.260;2022-08-19T13:26:32;9.52;;;1.40;;
71941;SDS011;59997;53.300;-6.260;2022-08-19T13:28:58;8.07;;;1.85;;
71941;SDS011;59997;53.300;-6.260;2022-08-19T13:31:42;10.23;;;1.77;;
71941;SDS011;59997;53.300;-6.260;2022-08-19T13:34:29;6.95;;;2.38;;
71941;SDS011;59997;53.300;-6.260;2022-08-19T13:36:58;9.53;;;2.03;;
71941;SDS011;59997;53.300;-6.260;2022-08-19T13:39:25;6.68;;;1.20;;
71941;SDS011;59997;53.300;-6.260;2022-08-19T13:41:53;7.95;;;1.70;;
71941;SDS011;59997;53.300;-6.260;2022-08-19T13:44:19;8.10;;;2.00;;
71941;SDS011;59997;53.300;-6.260;2022-08-19T13:46:45;7.60;;;1.70;;
71941;SDS011;59997;53.300;-6.260;2022-08-19T13:49:14;5.97;;;1.30;;
71941;SDS011;59997;53.300;-6.260;2022-08-19T13:51:40;7.20;;;1.67;;
71941;SDS011;59997;53.300;-6.260;2022-08-19T13:54:07;6.43;;;1.45;;
71941;SDS011;59997;53.300;-6.260;2022-08-19T13:56:34;6.50;;;1.30;;
71941;SDS011;59997;53.300;-6.260;2022-08-19T13:59:01;9.15;;;1.40;;
71941;SDS011;59997;53.300;-6.260;2022-08-19T14:01:27;6.63;;;1.52;;
71941;SDS011;59997;53.300;-6.260;2022-08-19T14:03:54;6.43;;;1.20;;
71941;SDS011;59997;53.300;-6.260;2022-08-19T14:06:20;7.93;;;1.73;;
71941;SDS011;59997;53.300;-6.260;2022-08-19T14:08:48;6.97;;;1.10;;
71941;SDS011;59997;53.300;-6.260;2022-08-19T14:11:18;7.43;;;1.13;;
71941;SDS011;59997;53.300;-6.260;2022-08-19T14:13:44;6.67;;;1.57;;
71941;SDS011;59997;53.300;-6.260;2022-08-19T14:16:11;6.38;;;1.70;;
71941;SDS011;59997;53.300;-6.260;2022-08-19T14:18:39;7.70;;;1.20;;
71941;SDS011;59997;53.300;-6.260;2022-08-19T14:21:05;5.85;;;1.10;;
71941;SDS011;59997;53.300;-6.260;2022-08-19T14:23:32;7.40;;;1.40;;
71941;SDS011;59997;53.300;-6.260;2022-08-19T14:26:10;5.75;;;1.00;;
71941;SDS011;59997;53.300;-6.260;2022-08-19T14:28:39;7.88;;;1.48;;
71941;SDS011;59997;53.300;-6.260;2022-08-19T14:31:08;6.05;;;1.00;;
71941;SDS011;59997;53.300;-6.260;2022-08-19T14:33:41;8.10;;;1.60;;
71941;SDS011;59997;53.300;-6.260;2022-08-19T14:36:07;8.27;;;1.50;;
71941;SDS011;59997;53.300;-6.260;2022-08-19T14:38:36;6.25;;;1.10;;
71941;SDS011;59997;53.300;-6.260;2022-08-19T14:41:13;6.77;;;1.00;;
71941;SDS011;59997;53.300;-6.260;2022-08-19T14:43:43;7.05;;;0.90;;
71941;SDS011;59997;53.300;-6.260;2022-08-19T14:46:14;7.00;;;1.10;;